createdAt,value
2022-11-03T00:00:47.386Z,1017.01
2022-11-03T00:01:47.604Z,1017.00
2022-11-03T00:02:47.529Z,1017.02
2022-11-03T00:03:47.444Z,1017.03
2022-11-03T00:04:47.327Z,1017.02
2022-11-03T00:05:47.421Z,1016.99
2022-11-03T00:06:47.308Z,1016.97
2022-11-03T00:07:47.328Z,1016.97
2022-11-03T00:08:47.335Z,1016.98
2022-11-03T00:09:47.284Z,1016.97
2022-11-03T00:10:47.286Z,1016.95
2022-11-03T00:11:47.377Z,1016.92
2022-11-03T00:12:47.393Z,1016.92
2022-11-03T00:13:47.274Z,1016.94
2022-11-03T00:14:47.257Z,1016.96
2022-11-03T00:15:47.321Z,1016.97
2022-11-03T00:16:47.313Z,1016.97
2022-11-03T00:17:47.301Z,1016.97
2022-11-03T00:18:47.255Z,1016.94
2022-11-03T00:19:47.167Z,1016.92
2022-11-03T00:20:47.203Z,1016.91
2022-11-03T00:21:47.232Z,1016.92
2022-11-03T00:22:47.144Z,1016.93
2022-11-03T00:23:47.217Z,1016.94
2022-11-03T00:24:47.124Z,1016.93
2022-11-03T00:25:47.112Z,1016.92
2022-11-03T00:26:47.192Z,1016.90
2022-11-03T00:27:47.105Z,1016.88
2022-11-03T00:28:47.095Z,1016.87
2022-11-03T00:29:47.480Z,1016.88
2022-11-03T00:30:47.196Z,1016.88
2022-11-03T00:31:47.203Z,1016.89
2022-11-03T00:32:47.148Z,1016.89
2022-11-03T00:33:47.096Z,1016.88
2022-11-03T00:34:47.020Z,1016.87
2022-11-03T00:35:47.003Z,1016.86
2022-11-03T00:36:46.997Z,1016.85
2022-11-03T00:37:47.158Z,1016.86
2022-11-03T00:38:47.037Z,1016.88
2022-11-03T00:39:46.969Z,1016.89
2022-11-03T00:40:47.097Z,1016.89
2022-11-03T00:41:46.947Z,1016.87
2022-11-03T00:42:46.929Z,1016.85
2022-11-03T00:43:47.045Z,1016.83
2022-11-03T00:44:46.997Z,1016.82
2022-11-03T00:45:46.915Z,1016.80
2022-11-03T00:46:46.950Z,1016.79
2022-11-03T00:47:46.956Z,1016.77
2022-11-03T00:48:46.968Z,1016.76
2022-11-03T00:49:47.574Z,1016.76
2022-11-03T00:50:46.847Z,1016.78
2022-11-03T00:51:47.462Z,1016.79
2022-11-03T00:52:46.946Z,1016.78
2022-11-03T00:53:46.821Z,1016.76
2022-11-03T00:54:50.025Z,1016.74
2022-11-03T00:55:46.889Z,1016.72
2022-11-03T00:56:46.785Z,1016.69
2022-11-03T00:57:46.793Z,1016.67
2022-11-03T00:58:46.885Z,1016.67
2022-11-03T00:59:46.834Z,1016.65
2022-11-03T01:00:46.993Z,1016.63
2022-11-03T01:01:47.925Z,1016.61
2022-11-03T01:02:46.732Z,1016.61
2022-11-03T01:03:46.729Z,1016.62
2022-11-03T01:04:47.093Z,1016.61
2022-11-03T01:05:46.700Z,1016.60
2022-11-03T01:06:46.713Z,1016.58
2022-11-03T01:07:46.697Z,1016.57
2022-11-03T01:08:46.765Z,1016.55
2022-11-03T01:09:46.647Z,1016.54
2022-11-03T01:10:46.639Z,1016.54
2022-11-03T01:11:46.632Z,1016.56
2022-11-03T01:12:46.669Z,1016.56
2022-11-03T01:13:46.653Z,1016.55
2022-11-03T01:14:46.594Z,1016.52
2022-11-03T01:15:46.592Z,1016.51
2022-11-03T01:16:46.577Z,1016.53
2022-11-03T01:17:46.584Z,1016.55
2022-11-03T01:18:46.568Z,1016.55
2022-11-03T01:19:46.593Z,1016.54
2022-11-03T01:20:46.537Z,1016.52
2022-11-03T01:21:46.518Z,1016.51
2022-11-03T01:22:46.560Z,1016.51
2022-11-03T01:23:47.502Z,1016.52
2022-11-03T01:24:46.552Z,1016.55
2022-11-03T01:25:46.486Z,1016.54
2022-11-03T01:26:46.588Z,1016.53
2022-11-03T01:27:46.460Z,1016.52
2022-11-03T01:28:46.476Z,1016.51
2022-11-03T01:29:46.463Z,1016.51
2022-11-03T01:30:46.444Z,1016.54
2022-11-03T01:31:46.428Z,1016.53
2022-11-03T01:32:46.554Z,1016.51
2022-11-03T01:33:46.398Z,1016.49
2022-11-03T01:34:46.415Z,1016.48
2022-11-03T01:35:46.386Z,1016.50
2022-11-03T01:36:46.504Z,1016.50
2022-11-03T01:37:46.348Z,1016.50
2022-11-03T01:38:46.355Z,1016.49
2022-11-03T01:39:46.344Z,1016.48
2022-11-03T01:40:46.313Z,1016.47
2022-11-03T01:41:46.307Z,1016.46
2022-11-03T01:42:46.299Z,1016.45
2022-11-03T01:43:46.304Z,1016.45
2022-11-03T01:44:46.277Z,1016.43
2022-11-03T01:45:46.309Z,1016.40
2022-11-03T01:46:46.259Z,1016.39
2022-11-03T01:47:46.328Z,1016.40
2022-11-03T01:48:46.261Z,1016.42
2022-11-03T01:49:46.250Z,1016.42
2022-11-03T01:50:46.226Z,1016.44
2022-11-03T01:51:47.045Z,1016.44
2022-11-03T01:52:46.840Z,1016.46
2022-11-03T01:53:46.203Z,1016.46
2022-11-03T01:54:46.165Z,1016.47
2022-11-03T01:55:46.174Z,1016.48
2022-11-03T01:56:46.151Z,1016.49
2022-11-03T01:57:46.171Z,1016.48
2022-11-03T01:58:46.135Z,1016.48
2022-11-03T01:59:46.206Z,1016.46
2022-11-03T02:00:46.274Z,1016.46
2022-11-03T02:01:46.289Z,1016.46
2022-11-03T02:02:46.116Z,1016.46
2022-11-03T02:03:46.086Z,1016.46
2022-11-03T02:04:46.157Z,1016.46
2022-11-03T02:05:46.120Z,1016.44
2022-11-03T02:06:46.060Z,1016.42
2022-11-03T02:07:46.069Z,1016.41
2022-11-03T02:08:46.084Z,1016.40
2022-11-03T02:09:46.015Z,1016.38
2022-11-03T02:10:46.003Z,1016.37
2022-11-03T02:11:46.005Z,1016.36
2022-11-03T02:12:46.014Z,1016.35
2022-11-03T02:13:46.018Z,1016.35
2022-11-03T02:14:45.960Z,1016.35
2022-11-03T02:15:45.994Z,1016.35
2022-11-03T02:16:48.651Z,1016.36
2022-11-03T02:17:45.983Z,1016.35
2022-11-03T02:18:45.930Z,1016.32
2022-11-03T02:19:45.980Z,1016.31
2022-11-03T02:20:45.987Z,1016.29
2022-11-03T02:21:45.933Z,1016.28
2022-11-03T02:22:51.928Z,1016.23
2022-11-03T02:23:46.609Z,1016.21
2022-11-03T02:24:49.839Z,1016.18
2022-11-03T02:25:46.504Z,1016.17
2022-11-03T02:26:45.834Z,1016.15
2022-11-03T02:27:45.832Z,1016.13
2022-11-03T02:28:45.900Z,1016.12
2022-11-03T02:29:45.811Z,1016.09
2022-11-03T02:30:45.802Z,1016.06
2022-11-03T02:31:45.793Z,1016.03
2022-11-03T02:32:45.820Z,1016.03
2022-11-03T02:33:45.780Z,1016.03
2022-11-03T02:34:45.754Z,1016.03
2022-11-03T02:35:45.744Z,1016.00
2022-11-03T02:36:45.732Z,1015.99
2022-11-03T02:37:45.748Z,1015.99
2022-11-03T02:38:45.719Z,1016.00
2022-11-03T02:39:45.735Z,1015.98
2022-11-03T02:40:45.740Z,1015.94
2022-11-03T02:41:45.688Z,1015.89
2022-11-03T02:42:45.666Z,1015.87
2022-11-03T02:43:45.674Z,1015.88
2022-11-03T02:44:45.652Z,1015.89
2022-11-03T02:45:45.649Z,1015.93
2022-11-03T02:46:45.633Z,1015.95
2022-11-03T02:47:45.617Z,1015.96
2022-11-03T02:48:45.609Z,1016.00
2022-11-03T02:49:45.701Z,1015.99
2022-11-03T02:50:45.636Z,1015.98
2022-11-03T02:51:45.579Z,1016.00
2022-11-03T02:52:45.574Z,1015.99
2022-11-03T02:53:45.605Z,1015.97
2022-11-03T02:54:45.548Z,1015.97
2022-11-03T02:55:45.533Z,1015.96
2022-11-03T02:56:45.529Z,1015.97
2022-11-03T02:57:45.525Z,1015.96
2022-11-03T02:58:45.623Z,1015.97
2022-11-03T02:59:45.521Z,1015.95
2022-11-03T03:00:45.718Z,1015.95
2022-11-03T03:01:45.825Z,1015.93
2022-11-03T03:02:45.463Z,1015.92
2022-11-03T03:03:45.511Z,1015.90
2022-11-03T03:04:45.439Z,1015.88
2022-11-03T03:05:45.600Z,1015.85
2022-11-03T03:06:45.421Z,1015.83
2022-11-03T03:07:45.410Z,1015.81
2022-11-03T03:08:45.421Z,1015.79
2022-11-03T03:09:45.660Z,1015.78
2022-11-03T03:10:45.373Z,1015.75
2022-11-03T03:11:45.620Z,1015.74
2022-11-03T03:12:45.631Z,1015.74
2022-11-03T03:13:45.366Z,1015.73
2022-11-03T03:14:45.605Z,1015.71
2022-11-03T03:15:45.335Z,1015.68
2022-11-03T03:16:45.611Z,1015.66
2022-11-03T03:17:45.315Z,1015.66
2022-11-03T03:18:45.307Z,1015.67
2022-11-03T03:19:45.586Z,1015.67
2022-11-03T03:20:45.271Z,1015.65
2022-11-03T03:21:45.264Z,1015.66
2022-11-03T03:22:45.263Z,1015.67
2022-11-03T03:23:45.421Z,1015.68
2022-11-03T03:24:45.640Z,1015.71
2022-11-03T03:25:45.223Z,1015.73
2022-11-03T03:26:45.236Z,1015.74
2022-11-03T03:27:45.203Z,1015.74
2022-11-03T03:28:45.211Z,1015.74
2022-11-03T03:29:45.202Z,1015.74
2022-11-03T03:30:45.172Z,1015.73
2022-11-03T03:31:45.170Z,1015.71
2022-11-03T03:32:45.164Z,1015.70
2022-11-03T03:33:47.712Z,1015.69
2022-11-03T03:34:45.122Z,1015.69
2022-11-03T03:35:45.127Z,1015.70
2022-11-03T03:36:45.112Z,1015.70
2022-11-03T03:37:45.106Z,1015.69
2022-11-03T03:38:45.095Z,1015.69
2022-11-03T03:39:45.075Z,1015.68
2022-11-03T03:40:45.060Z,1015.66
2022-11-03T03:41:45.127Z,1015.64
2022-11-03T03:42:45.084Z,1015.65
2022-11-03T03:43:45.047Z,1015.66
2022-11-03T03:44:45.085Z,1015.68
2022-11-03T03:45:45.026Z,1015.66
2022-11-03T03:46:45.011Z,1015.64
2022-11-03T03:47:45.001Z,1015.62
2022-11-03T03:48:45.013Z,1015.59
2022-11-03T03:49:44.974Z,1015.61
2022-11-03T03:50:44.953Z,1015.61
2022-11-03T03:51:45.083Z,1015.61
2022-11-03T03:52:44.973Z,1015.61
2022-11-03T03:53:45.000Z,1015.61
2022-11-03T03:54:44.930Z,1015.60
2022-11-03T03:55:44.913Z,1015.61
2022-11-03T03:56:44.894Z,1015.59
2022-11-03T03:57:44.910Z,1015.58
2022-11-03T03:58:44.893Z,1015.58
2022-11-03T03:59:44.879Z,1015.57
2022-11-03T04:00:44.925Z,1015.58
2022-11-03T04:01:44.996Z,1015.56
2022-11-03T04:02:44.967Z,1015.55
2022-11-03T04:03:44.844Z,1015.55
2022-11-03T04:04:44.827Z,1015.56
2022-11-03T04:05:44.809Z,1015.56
2022-11-03T04:06:44.790Z,1015.58
2022-11-03T04:07:44.992Z,1015.58
2022-11-03T04:08:45.097Z,1015.57
2022-11-03T04:09:44.770Z,1015.56
2022-11-03T04:10:44.747Z,1015.55
2022-11-03T04:11:45.342Z,1015.54
2022-11-03T04:12:44.740Z,1015.52
2022-11-03T04:13:44.929Z,1015.51
2022-11-03T04:14:44.716Z,1015.52
2022-11-03T04:15:44.859Z,1015.52
2022-11-03T04:16:44.706Z,1015.51
2022-11-03T04:17:44.725Z,1015.52
2022-11-03T04:18:44.677Z,1015.54
2022-11-03T04:19:44.661Z,1015.55
2022-11-03T04:20:44.699Z,1015.55
2022-11-03T04:21:44.640Z,1015.54
2022-11-03T04:22:44.622Z,1015.54
2022-11-03T04:23:44.640Z,1015.54
2022-11-03T04:24:44.609Z,1015.54
2022-11-03T04:25:44.604Z,1015.52
2022-11-03T04:26:44.586Z,1015.51
2022-11-03T04:27:44.584Z,1015.52
2022-11-03T04:28:44.570Z,1015.51
2022-11-03T04:29:44.571Z,1015.52
2022-11-03T04:30:44.539Z,1015.52
2022-11-03T04:31:44.552Z,1015.51
2022-11-03T04:32:44.533Z,1015.50
2022-11-03T04:33:44.532Z,1015.49
2022-11-03T04:34:44.502Z,1015.48
2022-11-03T04:35:44.498Z,1015.48
2022-11-03T04:36:44.484Z,1015.47
2022-11-03T04:37:47.454Z,1015.45
2022-11-03T04:38:44.484Z,1015.43
2022-11-03T04:40:44.441Z,1015.40
2022-11-03T04:41:44.427Z,1015.38
2022-11-03T04:42:44.416Z,1015.36
2022-11-03T04:43:44.441Z,1015.34
2022-11-03T04:44:44.429Z,1015.32
2022-11-03T04:45:44.386Z,1015.31
2022-11-03T04:46:44.380Z,1015.32
2022-11-03T04:47:44.370Z,1015.31
2022-11-03T04:48:44.369Z,1015.30
2022-11-03T04:49:44.348Z,1015.28
2022-11-03T04:50:46.916Z,1015.27
2022-11-03T04:51:44.331Z,1015.27
2022-11-03T04:52:44.307Z,1015.27
2022-11-03T04:53:44.326Z,1015.28
2022-11-03T04:54:44.305Z,1015.24
2022-11-03T04:55:44.291Z,1015.22
2022-11-03T04:56:44.286Z,1015.19
2022-11-03T04:57:44.267Z,1015.18
2022-11-03T04:58:44.260Z,1015.14
2022-11-03T04:59:44.240Z,1015.10
2022-11-03T05:00:44.271Z,1015.08
2022-11-03T05:01:44.475Z,1015.06
2022-11-03T05:02:44.221Z,1015.06
2022-11-03T05:03:44.220Z,1015.04
2022-11-03T05:04:44.185Z,1015.01
2022-11-03T05:05:44.176Z,1015.01
2022-11-03T05:06:44.169Z,1014.99
2022-11-03T05:07:44.165Z,1014.99
2022-11-03T05:08:44.162Z,1014.97
2022-11-03T05:09:44.153Z,1014.95
2022-11-03T05:10:44.132Z,1014.96
2022-11-03T05:11:44.121Z,1014.97
2022-11-03T05:12:44.103Z,1014.99
2022-11-03T05:13:44.290Z,1014.98
2022-11-03T05:14:44.131Z,1015.00
2022-11-03T05:15:44.076Z,1014.99
2022-11-03T05:16:44.158Z,1014.98
2022-11-03T05:17:44.051Z,1014.97
2022-11-03T05:18:44.139Z,1014.93
2022-11-03T05:19:44.038Z,1014.93
2022-11-03T05:20:44.141Z,1014.91
2022-11-03T05:21:44.022Z,1014.89
2022-11-03T05:22:44.019Z,1014.87
2022-11-03T05:23:43.999Z,1014.85
2022-11-03T05:24:43.983Z,1014.85
2022-11-03T05:25:43.967Z,1014.84
2022-11-03T05:26:44.008Z,1014.82
2022-11-03T05:27:43.955Z,1014.82
2022-11-03T05:28:44.057Z,1014.80
2022-11-03T05:29:43.930Z,1014.79
2022-11-03T05:30:44.009Z,1014.79
2022-11-03T05:31:43.869Z,1014.78
2022-11-03T05:32:43.966Z,1014.76
2022-11-03T05:33:43.922Z,1014.75
2022-11-03T05:34:43.905Z,1014.73
2022-11-03T05:35:43.836Z,1014.73
2022-11-03T05:36:43.904Z,1014.73
2022-11-03T05:37:43.842Z,1014.71
2022-11-03T05:38:43.888Z,1014.70
2022-11-03T05:39:43.775Z,1014.67
2022-11-03T05:40:43.824Z,1014.67
2022-11-03T05:41:43.765Z,1014.63
2022-11-03T05:42:43.765Z,1014.60
2022-11-03T05:43:43.732Z,1014.58
2022-11-03T05:44:43.751Z,1014.56
2022-11-03T05:45:43.725Z,1014.55
2022-11-03T05:46:43.762Z,1014.55
2022-11-03T05:47:43.704Z,1014.56
2022-11-03T05:48:43.799Z,1014.55
2022-11-03T05:49:43.662Z,1014.55
2022-11-03T05:50:43.684Z,1014.57
2022-11-03T05:51:43.653Z,1014.56
2022-11-03T05:52:43.753Z,1014.56
2022-11-03T05:53:43.619Z,1014.56
2022-11-03T05:54:43.827Z,1014.55
2022-11-03T05:55:43.646Z,1014.57
2022-11-03T05:56:43.598Z,1014.57
2022-11-03T05:57:43.631Z,1014.57
2022-11-03T05:58:43.576Z,1014.58
2022-11-03T05:59:43.637Z,1014.58
2022-11-03T06:00:48.427Z,1014.57
2022-11-03T06:01:43.675Z,1014.58
2022-11-03T06:02:43.738Z,1014.57
2022-11-03T06:03:43.567Z,1014.58
2022-11-03T06:04:43.519Z,1014.59
2022-11-03T06:05:43.586Z,1014.58
2022-11-03T06:06:43.590Z,1014.56
2022-11-03T06:07:43.486Z,1014.54
2022-11-03T06:08:46.030Z,1014.52
2022-11-03T06:09:43.512Z,1014.51
2022-11-03T06:10:43.506Z,1014.49
2022-11-03T06:11:43.494Z,1014.50
2022-11-03T06:12:43.526Z,1014.51
2022-11-03T06:13:43.415Z,1014.53
2022-11-03T06:14:43.476Z,1014.56
2022-11-03T06:15:43.405Z,1014.59
2022-11-03T06:16:43.396Z,1014.60
2022-11-03T06:17:43.447Z,1014.64
2022-11-03T06:18:43.368Z,1014.66
2022-11-03T06:19:43.350Z,1014.67
2022-11-03T06:20:43.346Z,1014.67
2022-11-03T06:21:44.652Z,1014.67
2022-11-03T06:22:43.355Z,1014.69
2022-11-03T06:23:43.336Z,1014.70
2022-11-03T06:24:43.303Z,1014.71
2022-11-03T06:25:43.295Z,1014.73
2022-11-03T06:26:43.288Z,1014.74
2022-11-03T06:27:43.284Z,1014.76
2022-11-03T06:28:43.280Z,1014.78
2022-11-03T06:29:43.253Z,1014.78
2022-11-03T06:31:43.331Z,1014.76
2022-11-03T06:32:43.238Z,1014.75
2022-11-03T06:33:43.237Z,1014.72
2022-11-03T06:34:43.210Z,1014.73
2022-11-03T06:35:43.187Z,1014.73
2022-11-03T06:36:43.177Z,1014.74
2022-11-03T06:37:43.215Z,1014.72
2022-11-03T06:38:43.159Z,1014.73
2022-11-03T06:39:43.151Z,1014.72
2022-11-03T06:40:43.148Z,1014.71
2022-11-03T06:41:43.149Z,1014.72
2022-11-03T06:42:43.127Z,1014.73
2022-11-03T06:43:43.116Z,1014.73
2022-11-03T06:44:43.094Z,1014.72
2022-11-03T06:45:43.127Z,1014.71
2022-11-03T06:46:43.110Z,1014.70
2022-11-03T06:47:43.132Z,1014.68
2022-11-03T06:48:43.102Z,1014.68
2022-11-03T06:49:43.069Z,1014.67
2022-11-03T06:50:44.988Z,1014.67
2022-11-03T06:51:43.068Z,1014.66
2022-11-03T06:52:43.068Z,1014.67
2022-11-03T06:53:43.010Z,1014.66
2022-11-03T06:54:42.988Z,1014.64
2022-11-03T06:55:42.980Z,1014.64
2022-11-03T06:56:42.983Z,1014.62
2022-11-03T06:57:42.959Z,1014.59
2022-11-03T06:58:42.969Z,1014.58
2022-11-03T06:59:42.993Z,1014.53
2022-11-03T07:00:48.856Z,1014.50
2022-11-03T07:01:43.657Z,1014.48
2022-11-03T07:02:42.996Z,1014.45
2022-11-03T07:03:42.985Z,1014.42
2022-11-03T07:04:42.882Z,1014.40
2022-11-03T07:05:42.950Z,1014.37
2022-11-03T07:06:42.901Z,1014.33
2022-11-03T07:07:42.887Z,1014.33
2022-11-03T07:08:42.847Z,1014.31
2022-11-03T07:09:42.831Z,1014.30
2022-11-03T07:10:42.837Z,1014.30
2022-11-03T07:11:42.848Z,1014.30
2022-11-03T07:12:42.807Z,1014.31
2022-11-03T07:13:42.792Z,1014.31
2022-11-03T07:14:42.786Z,1014.34
2022-11-03T07:15:42.783Z,1014.33
2022-11-03T07:16:42.783Z,1014.34
2022-11-03T07:17:42.776Z,1014.31
2022-11-03T07:18:42.747Z,1014.30
2022-11-03T07:19:42.736Z,1014.29
2022-11-03T07:20:42.729Z,1014.28
2022-11-03T07:21:42.742Z,1014.28
2022-11-03T07:22:42.709Z,1014.29
2022-11-03T07:23:44.751Z,1014.30
2022-11-03T07:24:42.683Z,1014.30
2022-11-03T07:25:42.671Z,1014.30
2022-11-03T07:26:42.679Z,1014.30
2022-11-03T07:27:42.651Z,1014.30
2022-11-03T07:28:42.638Z,1014.33
2022-11-03T07:29:42.627Z,1014.34
2022-11-03T07:30:42.622Z,1014.34
2022-11-03T07:31:42.625Z,1014.33
2022-11-03T07:32:42.595Z,1014.32
2022-11-03T07:33:42.590Z,1014.31
2022-11-03T07:34:42.582Z,1014.30
2022-11-03T07:36:13.081Z,1014.30
2022-11-03T07:36:42.577Z,1014.32
2022-11-03T07:37:42.551Z,1014.32
2022-11-03T07:38:42.534Z,1014.33
2022-11-03T07:39:42.529Z,1014.33
2022-11-03T07:40:42.510Z,1014.35
2022-11-03T07:41:42.536Z,1014.35
2022-11-03T07:42:42.504Z,1014.33
2022-11-03T07:43:42.475Z,1014.35
2022-11-03T07:44:42.472Z,1014.35
2022-11-03T07:45:42.472Z,1014.36
2022-11-03T07:46:42.472Z,1014.35
2022-11-03T07:47:42.444Z,1014.32
2022-11-03T07:48:42.438Z,1014.33
2022-11-03T07:49:42.428Z,1014.32
2022-11-03T07:50:42.415Z,1014.31
2022-11-03T07:51:42.411Z,1014.27
2022-11-03T07:52:42.406Z,1014.27
2022-11-03T07:53:42.375Z,1014.26
2022-11-03T07:54:42.404Z,1014.25
2022-11-03T07:55:42.415Z,1014.23
2022-11-03T07:56:42.522Z,1014.22
2022-11-03T07:57:42.345Z,1014.19
2022-11-03T07:58:42.357Z,1014.22
2022-11-03T07:59:42.326Z,1014.18
2022-11-03T08:00:42.317Z,1014.21
2022-11-03T08:01:42.449Z,1014.21
2022-11-03T08:02:42.417Z,1014.18
2022-11-03T08:03:42.275Z,1014.18
2022-11-03T08:04:42.895Z,1014.14
2022-11-03T08:05:42.270Z,1014.14
2022-11-03T08:06:42.282Z,1014.14
2022-11-03T08:07:42.234Z,1014.10
2022-11-03T08:08:42.252Z,1014.10
2022-11-03T08:09:42.229Z,1014.06
2022-11-03T08:10:42.223Z,1014.07
2022-11-03T08:11:42.200Z,1014.02
2022-11-03T08:12:42.216Z,1014.00
2022-11-03T08:13:42.164Z,1013.98
2022-11-03T08:14:42.199Z,1013.95
2022-11-03T08:15:42.152Z,1013.94
2022-11-03T08:16:42.199Z,1013.92
2022-11-03T08:17:42.121Z,1013.92
2022-11-03T08:18:42.178Z,1013.92
2022-11-03T08:19:42.110Z,1013.89
2022-11-03T08:20:42.091Z,1013.90
2022-11-03T08:21:42.096Z,1013.86
2022-11-03T08:22:49.865Z,1013.83
2022-11-03T08:23:50.788Z,1013.82
2022-11-03T08:24:42.048Z,1013.82
2022-11-03T08:25:42.047Z,1013.80
2022-11-03T08:26:42.049Z,1013.79
2022-11-03T08:27:42.032Z,1013.78
2022-11-03T08:28:42.018Z,1013.77
2022-11-03T08:29:41.988Z,1013.76
2022-11-03T08:30:42.029Z,1013.74
2022-11-03T08:31:42.059Z,1013.74
2022-11-03T08:32:42.042Z,1013.74
2022-11-03T08:33:41.948Z,1013.75
2022-11-03T08:34:41.938Z,1013.75
2022-11-03T08:35:42.021Z,1013.72
2022-11-03T08:36:41.921Z,1013.76
2022-11-03T08:37:41.910Z,1013.75
2022-11-03T08:38:42.033Z,1013.77
2022-11-03T08:39:41.923Z,1013.72
2022-11-03T08:40:42.073Z,1013.71
2022-11-03T08:41:41.875Z,1013.65
2022-11-03T08:42:41.862Z,1013.64
2022-11-03T08:43:41.839Z,1013.63
2022-11-03T08:44:41.838Z,1013.61
2022-11-03T08:45:41.830Z,1013.59
2022-11-03T08:46:41.854Z,1013.59
2022-11-03T08:47:41.799Z,1013.57
2022-11-03T08:48:41.803Z,1013.53
2022-11-03T08:49:41.776Z,1013.49
2022-11-03T08:50:41.783Z,1013.50
2022-11-03T08:51:44.663Z,1013.47
2022-11-03T08:52:41.788Z,1013.45
2022-11-03T08:53:41.741Z,1013.46
2022-11-03T08:54:41.733Z,1013.46
2022-11-03T08:55:41.737Z,1013.44
2022-11-03T08:56:41.707Z,1013.43
2022-11-03T08:57:41.690Z,1013.42
2022-11-03T08:58:41.689Z,1013.40
2022-11-03T08:59:41.671Z,1013.38
2022-11-03T09:00:41.673Z,1013.35
2022-11-03T09:01:41.712Z,1013.32
2022-11-03T09:02:41.691Z,1013.28
2022-11-03T09:03:41.718Z,1013.27
2022-11-03T09:04:41.628Z,1013.25
2022-11-03T09:05:41.619Z,1013.23
2022-11-03T09:06:41.601Z,1013.20
2022-11-03T09:10:42.613Z,1013.17
2022-11-03T09:11:41.540Z,1013.13
2022-11-03T09:12:41.546Z,1013.16
2022-11-03T09:13:41.532Z,1013.16
2022-11-03T09:14:41.521Z,1013.15
2022-11-03T09:15:41.502Z,1013.12
2022-11-03T09:16:41.506Z,1013.11
2022-11-03T09:17:44.698Z,1013.13
2022-11-03T09:18:41.483Z,1013.08
2022-11-03T09:19:41.469Z,1013.09
2022-11-03T09:20:41.453Z,1013.06
2022-11-03T09:21:41.451Z,1013.08
2022-11-03T09:22:41.451Z,1013.04
2022-11-03T09:23:41.418Z,1013.02
2022-11-03T09:24:41.410Z,1013.04
2022-11-03T09:25:41.420Z,1013.02
2022-11-03T09:26:41.389Z,1013.03
2022-11-03T09:27:41.394Z,1013.02
2022-11-03T09:28:41.364Z,1013.02
2022-11-03T09:30:10.916Z,1013.01
2022-11-03T09:30:41.363Z,1012.99
2022-11-03T09:31:41.351Z,1013.00
2022-11-03T09:32:41.329Z,1012.93
2022-11-03T09:33:41.314Z,1012.93
2022-11-03T09:34:41.300Z,1012.90
2022-11-03T09:35:41.320Z,1012.85
2022-11-03T09:36:41.281Z,1012.87
2022-11-03T09:37:41.278Z,1012.88
2022-11-03T09:38:41.269Z,1012.82
2022-11-03T09:39:41.248Z,1012.81
2022-11-03T09:40:41.357Z,1012.80
2022-11-03T09:41:57.136Z,1012.78
2022-11-03T09:42:41.217Z,1012.75
2022-11-03T09:43:41.219Z,1012.71
2022-11-03T09:44:41.239Z,1012.70
2022-11-03T09:45:41.232Z,1012.65
2022-11-03T09:46:41.216Z,1012.64
2022-11-03T09:47:41.218Z,1012.64
2022-11-03T09:48:41.217Z,1012.62
2022-11-03T09:49:41.145Z,1012.60
2022-11-03T09:50:41.144Z,1012.62
2022-11-03T09:51:41.170Z,1012.60
2022-11-03T09:52:41.147Z,1012.57
2022-11-03T09:53:41.109Z,1012.57
2022-11-03T09:54:41.100Z,1012.54
2022-11-03T09:55:41.102Z,1012.56
2022-11-03T09:56:41.066Z,1012.50
2022-11-03T09:57:41.054Z,1012.52
2022-11-03T09:58:41.051Z,1012.52
2022-11-03T09:59:41.031Z,1012.50
2022-11-03T10:00:41.139Z,1012.47
2022-11-03T10:01:41.104Z,1012.44
2022-11-03T10:02:40.993Z,1012.43
2022-11-03T10:03:40.985Z,1012.41
2022-11-03T10:04:40.976Z,1012.43
2022-11-03T10:05:40.962Z,1012.40
2022-11-03T10:06:40.967Z,1012.39
2022-11-03T10:07:41.011Z,1012.37
2022-11-03T10:08:40.956Z,1012.36
2022-11-03T10:09:40.934Z,1012.34
2022-11-03T10:10:40.922Z,1012.33
2022-11-03T10:11:40.925Z,1012.33
2022-11-03T10:12:40.889Z,1012.33
2022-11-03T10:13:40.884Z,1012.32
2022-11-03T10:14:40.892Z,1012.29
2022-11-03T10:15:40.905Z,1012.27
2022-11-03T10:16:40.842Z,1012.28
2022-11-03T10:17:40.841Z,1012.23
2022-11-03T10:18:40.828Z,1012.20
2022-11-03T10:19:40.815Z,1012.20
2022-11-03T10:20:40.806Z,1012.18
2022-11-03T10:21:40.813Z,1012.18
2022-11-03T10:22:41.297Z,1012.13
2022-11-03T10:23:40.794Z,1012.10
2022-11-03T10:24:40.770Z,1012.04
2022-11-03T10:25:40.767Z,1012.06
2022-11-03T10:26:40.749Z,1012.04
2022-11-03T10:27:40.731Z,1012.01
2022-11-03T10:28:40.734Z,1011.99
2022-11-03T10:29:42.430Z,1011.99
2022-11-03T10:30:58.062Z,1011.97
2022-11-03T10:31:40.706Z,1012.00
2022-11-03T10:32:40.682Z,1011.97
2022-11-03T10:33:40.723Z,1011.97
2022-11-03T10:34:40.677Z,1011.96
2022-11-03T10:35:40.650Z,1011.95
2022-11-03T10:36:40.651Z,1011.93
2022-11-03T10:37:40.712Z,1011.89
2022-11-03T10:38:40.613Z,1011.86
2022-11-03T10:39:40.611Z,1011.86
2022-11-03T10:40:48.684Z,1011.84
2022-11-03T10:41:40.609Z,1011.81
2022-11-03T10:42:40.573Z,1011.82
2022-11-03T10:43:40.566Z,1011.80
2022-11-03T10:44:40.554Z,1011.79
2022-11-03T10:45:40.568Z,1011.74
2022-11-03T10:46:56.044Z,1011.73
2022-11-03T10:47:40.551Z,1011.71
2022-11-03T10:48:40.510Z,1011.70
2022-11-03T10:49:43.697Z,1011.72
2022-11-03T10:50:40.500Z,1011.72
2022-11-03T10:51:40.527Z,1011.69
2022-11-03T10:52:40.474Z,1011.72
2022-11-03T10:53:40.461Z,1011.67
2022-11-03T10:54:40.457Z,1011.66
2022-11-03T10:55:40.454Z,1011.64
2022-11-03T10:56:40.433Z,1011.61
2022-11-03T10:57:40.414Z,1011.59
2022-11-03T10:58:40.396Z,1011.60
2022-11-03T10:59:40.391Z,1011.59
2022-11-03T11:00:40.466Z,1011.56
2022-11-03T11:01:40.567Z,1011.54
2022-11-03T11:02:40.400Z,1011.51
2022-11-03T11:03:40.372Z,1011.47
2022-11-03T11:04:40.459Z,1011.48
2022-11-03T11:05:40.328Z,1011.47
2022-11-03T11:06:40.348Z,1011.45
2022-11-03T11:07:40.414Z,1011.46
2022-11-03T11:08:40.346Z,1011.44
2022-11-03T11:09:40.292Z,1011.41
2022-11-03T11:10:40.323Z,1011.40
2022-11-03T11:11:40.368Z,1011.38
2022-11-03T11:12:40.276Z,1011.37
2022-11-03T11:13:40.238Z,1011.31
2022-11-03T11:14:40.235Z,1011.34
2022-11-03T11:15:40.242Z,1011.31
2022-11-03T11:16:40.211Z,1011.31
2022-11-03T11:17:40.199Z,1011.28
2022-11-03T11:18:40.192Z,1011.28
2022-11-03T11:19:40.187Z,1011.26
2022-11-03T11:20:40.188Z,1011.24
2022-11-03T11:21:40.156Z,1011.24
2022-11-03T11:22:40.161Z,1011.23
2022-11-03T11:23:40.145Z,1011.24
2022-11-03T11:24:40.123Z,1011.23
2022-11-03T11:25:40.150Z,1011.22
2022-11-03T11:26:40.121Z,1011.18
2022-11-03T11:27:40.092Z,1011.15
2022-11-03T11:28:40.083Z,1011.11
2022-11-03T11:29:40.078Z,1011.08
2022-11-03T11:30:40.081Z,1011.08
2022-11-03T11:31:40.094Z,1011.06
2022-11-03T11:32:40.037Z,1011.05
2022-11-03T11:33:40.076Z,1011.05
2022-11-03T11:34:40.018Z,1011.03
2022-11-03T11:35:40.472Z,1011.02
2022-11-03T11:36:40.023Z,1011.00
2022-11-03T11:37:39.987Z,1010.96
2022-11-03T11:38:39.981Z,1010.94
2022-11-03T11:39:39.965Z,1010.93
2022-11-03T11:40:39.975Z,1010.90
2022-11-03T11:41:39.972Z,1010.87
2022-11-03T11:42:39.942Z,1010.87
2022-11-03T11:43:39.924Z,1010.85
2022-11-03T11:44:39.911Z,1010.84
2022-11-03T11:45:39.910Z,1010.81
2022-11-03T11:46:39.953Z,1010.83
2022-11-03T11:47:39.879Z,1010.82
2022-11-03T11:48:39.883Z,1010.79
2022-11-03T11:49:39.862Z,1010.78
2022-11-03T11:50:39.859Z,1010.76
2022-11-03T11:51:39.868Z,1010.74
2022-11-03T11:52:39.841Z,1010.74
2022-11-03T11:53:39.821Z,1010.70
2022-11-03T11:54:39.800Z,1010.69
2022-11-03T11:55:39.865Z,1010.69
2022-11-03T11:56:39.785Z,1010.65
2022-11-03T11:57:39.785Z,1010.64
2022-11-03T11:58:41.784Z,1010.59
2022-11-03T11:59:39.789Z,1010.55
2022-11-03T12:00:39.747Z,1010.54
2022-11-03T12:01:39.768Z,1010.51
2022-11-03T12:02:39.734Z,1010.51
2022-11-03T12:03:39.768Z,1010.53
2022-11-03T12:04:39.693Z,1010.51
2022-11-03T12:05:39.710Z,1010.50
2022-11-03T12:06:39.730Z,1010.49
2022-11-03T12:07:39.675Z,1010.47
2022-11-03T12:08:39.659Z,1010.44
2022-11-03T12:09:39.651Z,1010.43
2022-11-03T12:10:39.655Z,1010.41